Terminal Aerodrome Forecast
Issued by NWS

Home | Current Version | Previous Version | Text Only | Print | Product List | Glossary On
Versions: 1 2 3 4 5 6 7 8 9 10 11 12 13 14
000
FTUS41 KCAR 210900 AAA
TAFBHB
TAF AMD
KBHB 210916Z 2109/2206 21013KT P6SM FEW060 SCT200
     FM211100 20009KT 5SM BR OVC010
     FM211500 19014KT P6SM BKN015
     FM220100 13005KT 5SM BR BKN002
      AMD LTD TO CLD VIS AND WIND=

USA.gov is the U.S. government's official web portal to all federal, state and local government web resources and services.